Weather History for Lordsburg, NM

Change the Weather History Date:

Saturday, February 16, 2013

  Actual Average Record
Temperature  
Mean Temperature 44 °F -  
Max Temperature 64 °F 63 °F 77 °F (2014)
Min Temperature 23 °F 27 °F 23 °F (2013)
Degree Days  
Heating Degree Days 22    
Moisture  
Dew Point 11 °F    
Average Humidity 34    
Maximum Humidity 68    
Minimum Humidity 10    
Precipitation  
Precipitation 0.00 in - - ()
Sea Level Pressure  
Sea Level Pressure 30.28 in    
Wind  
Wind Speed 7 mph (SSE)    
Max Wind Speed 16 mph    
Max Gust Speed 24 mph    
Visibility 10 miles    
Events      
Averages and records for this station are not official NWS values.
T = Trace of Precipitation, MM = Missing Value Source: NWS Daily Summary

Daily Weather History Graph

Daily Weather History Graph

Search for Another Location

Airport:

Trip Planner

Search our weather history database for the weather conditions in past years. The results will help you decide how hot, cold, wet, or windy it might be!

Date:

Astronomy

Feb. 16, 2013 Rise Set
Actual Time 6:56 AM MST 6:01 PM MST
Civil Twilight 6:31 AM MST 6:27 PM MST
Nautical Twilight 6:02 AM MST 6:55 PM MST
Astronomical Twilight 5:33 AM MST 7:24 PM MST
Moon 10:36 AM MST (2/16) No Moon Set
Length of Visible Light 11h 55m
Length of Day
11h 05m
Waxing Crescent, 40% of the Moon is Illuminated
Feb 16
Waxing Crescent
Feb 17
First Quarter
Feb 25
Full
Mar 4
Last Quarter
Mar 11
New

Hourly Weather History & Observations

Time (MST) Temp. Windchill Dew Point Humidity Pressure Visibility Wind Dir Wind Speed Gust Speed Precip Events Conditions
12:15 AM 33.8 °F 27.7 °F 17.6 °F 52% 30.36 in 10.0 mi SSE 6.9 mph - N/A   Clear
12:35 AM 33.8 °F 29.6 °F 17.6 °F 52% 30.36 in 10.0 mi South 4.6 mph - N/A   Clear
12:55 AM 35.6 °F 30.7 °F 17.6 °F 48% 30.36 in 10.0 mi South 5.8 mph - N/A   Clear
1:15 AM 33.8 °F 28.6 °F 17.6 °F 52% 30.36 in 10.0 mi South 5.8 mph - N/A   Clear
1:35 AM 37.4 °F 31.4 °F 19.4 °F 48% 30.36 in 10.0 mi SSW 8.1 mph - N/A   Clear
1:55 AM 37.4 °F 30.8 °F 19.4 °F 48% 30.36 in 10.0 mi South 9.2 mph - N/A   Clear
2:15 AM 28.4 °F 23.3 °F 14.0 °F 55% 30.36 in 10.0 mi East 4.6 mph - N/A   Clear
2:35 AM 28.4 °F 23.3 °F 14.0 °F 55% 30.36 in 10.0 mi SSE 4.6 mph - N/A   Clear
2:55 AM 28.4 °F - 14.0 °F 55% 30.36 in 10.0 mi Calm Calm - N/A   Clear
3:15 AM 28.4 °F - 14.0 °F 55% 30.36 in 10.0 mi Calm Calm - N/A   Clear
3:35 AM 28.4 °F - 14.0 °F 55% 30.36 in 10.0 mi Calm Calm - N/A   Clear
3:55 AM 28.4 °F - 14.0 °F 55% 30.36 in 10.0 mi Calm Calm - N/A   Clear
4:15 AM 26.6 °F 22.6 °F 14.0 °F 59% 30.36 in 10.0 mi SE 3.5 mph - N/A   Clear
4:35 AM 28.4 °F 21.2 °F 15.8 °F 59% 30.36 in 10.0 mi SSE 6.9 mph - N/A   Clear
4:55 AM 28.4 °F 22.2 °F 15.8 °F 59% 30.36 in 10.0 mi South 5.8 mph - N/A   Clear
5:15 AM 26.6 °F 22.6 °F 14.0 °F 59% 30.37 in 10.0 mi South 3.5 mph - N/A   Clear
5:35 AM 23.0 °F - 14.0 °F 68% 30.37 in 10.0 mi Calm Calm - N/A   Clear
5:55 AM 23.0 °F 18.4 °F 14.0 °F 68% 30.37 in 10.0 mi SE 3.5 mph - N/A   Clear
6:15 AM 23.0 °F 18.4 °F 14.0 °F 68% 30.37 in 10.0 mi SSE 3.5 mph - N/A   Clear
6:35 AM 24.8 °F 19.1 °F 14.0 °F 64% 30.37 in 10.0 mi South 4.6 mph - N/A   Clear
6:55 AM 26.6 °F - 14.0 °F 59% 30.37 in 10.0 mi Calm Calm - N/A   Clear
7:15 AM 23.0 °F - 12.2 °F 63% 30.38 in 10.0 mi Calm Calm - N/A   Clear
7:35 AM 24.8 °F - 14.0 °F 64% 30.39 in 10.0 mi Calm Calm - N/A   Clear
7:55 AM 28.4 °F - 14.0 °F 55% 30.39 in 10.0 mi Calm Calm - N/A   Clear
8:15 AM 30.2 °F - 14.0 °F 51% 30.41 in 10.0 mi Calm Calm - N/A   Clear
8:35 AM 32.0 °F - 15.8 °F 51% 30.41 in 10.0 mi Calm Calm - N/A   Clear
11:15 AM 57.2 °F - 12.2 °F 17% 30.37 in 10.0 mi ESE 12.7 mph 21.9 mph N/A   Clear
11:35 AM 57.2 °F - 12.2 °F 17% 30.36 in 10.0 mi SE 13.8 mph 21.9 mph N/A   Clear
11:55 AM 57.2 °F - 8.6 °F 14% 30.35 in 10.0 mi ESE 13.8 mph 21.9 mph N/A   Clear
12:15 PM 59.0 °F - 8.6 °F 14% 30.34 in 10.0 mi ESE 15.0 mph 23.0 mph N/A   Clear
12:35 PM 60.8 °F - 8.6 °F 13% 30.32 in 10.0 mi ESE 13.8 mph 24.2 mph N/A   Clear
12:55 PM 60.8 °F - 8.6 °F 13% 30.31 in 10.0 mi ESE 13.8 mph 20.7 mph N/A   Clear
1:15 PM 60.8 °F - 8.6 °F 13% 30.29 in 10.0 mi ESE 10.4 mph 23.0 mph N/A   Clear
1:35 PM 62.6 °F - 8.6 °F 12% 30.28 in 10.0 mi ESE 15.0 mph 21.9 mph N/A   Clear
1:55 PM 62.6 °F - 8.6 °F 12% 30.26 in 10.0 mi SE 10.4 mph 17.3 mph N/A   Clear
2:15 PM 62.6 °F - 6.8 °F 11% 30.25 in 10.0 mi SE 15.0 mph 20.7 mph N/A   Clear
2:35 PM 62.6 °F - 8.6 °F 12% 30.24 in 10.0 mi ESE 16.1 mph 21.9 mph N/A   Clear
2:55 PM 62.6 °F - 8.6 °F 12% 30.23 in 10.0 mi ESE 12.7 mph 18.4 mph N/A   Clear
3:15 PM 62.6 °F - 8.6 °F 12% 30.21 in 10.0 mi ESE 12.7 mph 18.4 mph N/A   Clear
3:35 PM 64.4 °F - 8.6 °F 11% 30.21 in 10.0 mi ESE 13.8 mph 19.6 mph N/A   Clear
3:55 PM 62.6 °F - 5.0 °F 10% 30.20 in 10.0 mi ESE 11.5 mph 17.3 mph N/A   Clear
4:15 PM 62.6 °F - 6.8 °F 11% 30.19 in 10.0 mi ESE 11.5 mph - N/A   Clear
4:35 PM 62.6 °F - 8.6 °F 12% 30.19 in 10.0 mi ESE 12.7 mph - N/A   Clear
4:55 PM 62.6 °F - 8.6 °F 12% 30.18 in 10.0 mi ESE 11.5 mph 16.1 mph N/A   Clear
5:15 PM 60.8 °F - 10.4 °F 14% 30.18 in 10.0 mi ESE 11.5 mph - N/A   Clear
5:35 PM 60.8 °F - 10.4 °F 14% 30.17 in 10.0 mi ESE 9.2 mph - N/A   Clear
5:55 PM 55.4 °F - 8.6 °F 15% 30.17 in 10.0 mi ESE 6.9 mph - N/A   Clear
6:15 PM 51.8 °F - 8.6 °F 18% 30.17 in 10.0 mi ESE 8.1 mph - N/A   Clear
6:35 PM 48.2 °F - 8.6 °F 20% 30.17 in 10.0 mi SSE 5.8 mph - N/A   Clear
6:55 PM 46.4 °F 42.9 °F 8.6 °F 22% 30.18 in 10.0 mi SSE 6.9 mph - N/A   Clear
7:15 PM 44.6 °F 41.4 °F 8.6 °F 23% 30.18 in 10.0 mi SSE 5.8 mph - N/A   Clear
7:35 PM 42.8 °F 38.6 °F 8.6 °F 25% 30.18 in 10.0 mi SSE 6.9 mph - N/A   Clear
7:55 PM 41.0 °F 36.4 °F 8.6 °F 26% 30.18 in 10.0 mi South 6.9 mph - N/A   Clear
8:15 PM 41.0 °F 36.4 °F 8.6 °F 26% 30.18 in 10.0 mi SSE 6.9 mph - N/A   Clear
8:35 PM 41.0 °F 36.4 °F 8.6 °F 26% 30.18 in 10.0 mi South 6.9 mph - N/A   Clear
8:55 PM 39.2 °F 33.6 °F 8.6 °F 28% 30.18 in 10.0 mi South 8.1 mph - N/A   Clear
9:15 PM 39.2 °F 33.0 °F 8.6 °F 28% 30.18 in 10.0 mi South 9.2 mph - N/A   Clear
9:35 PM 39.2 °F 33.0 °F 8.6 °F 28% 30.18 in 10.0 mi South 9.2 mph - N/A   Clear
9:55 PM 39.2 °F 32.5 °F 8.6 °F 28% 30.18 in 10.0 mi South 10.4 mph - N/A   Clear
10:15 PM 39.2 °F 32.5 °F 8.6 °F 28% 30.17 in 10.0 mi South 10.4 mph - N/A   Clear
10:35 PM 41.0 °F 35.2 °F 10.4 °F 29% 30.17 in 10.0 mi South 9.2 mph - N/A   Clear
10:55 PM 37.4 °F 30.8 °F 10.4 °F 33% 30.16 in 10.0 mi South 9.2 mph - N/A   Clear
11:15 PM 37.4 °F 30.8 °F 10.4 °F 33% 30.16 in 10.0 mi South 9.2 mph - N/A   Clear
11:35 PM 37.4 °F 31.4 °F 10.4 °F 33% 30.15 in 10.0 mi South 8.1 mph - N/A   Clear
11:55 PM 37.4 °F 30.3 °F 10.4 °F 33% 30.14 in 10.0 mi South 10.4 mph - N/A   Clear